Time;durP1;ratioP1;P1;durP2;ratioP2;P2;SDS_P1;SDS_P2;PMS_P1;PMS_P2;Temp;Humidity;BMP_temperature;BMP_pressure;BME280_temperature;BME280_humidity;BME280_pressure;Samples;Min_cycle;Max_cycle;Signal;HPM_P1;HPM_P2
2023/08/15 00:00:35;;;;;;;5.60;3.95;;;;;;;20.45;98.99;100901.13;5048366;28;20036;-71
2023/08/15 00:03:00;;;;;;;4.63;4.22;;;;;;;20.43;99.11;100909.28;5053161;28;20480;-72
2023/08/15 00:05:26;;;;;;;6.10;4.82;;;;;;;20.43;99.58;100897.88;5049483;28;20036;-72
2023/08/15 00:07:51;;;;;;;4.95;4.20;;;;;;;20.43;100.00;100903.16;5046031;28;20111;-73
2023/08/15 00:10:17;;;;;;;4.72;4.32;;;;;;;20.38;100.00;100895.00;5048818;28;20357;-72
2023/08/15 00:12:42;;;;;;;6.38;4.32;;;;;;;20.37;100.00;100891.50;5043385;28;20032;-72
2023/08/15 00:15:09;;;;;;;4.28;3.97;;;;;;;20.38;100.00;100895.81;5046214;28;20029;-72
2023/08/15 00:17:34;;;;;;;4.97;4.47;;;;;;;20.34;100.00;100896.38;5042407;28;20404;-72
2023/08/15 00:20:00;;;;;;;5.40;4.45;;;;;;;20.32;100.00;100895.78;5050208;28;20029;-72
2023/08/15 00:22:25;;;;;;;4.22;3.92;;;;;;;20.28;100.00;100894.53;5044543;28;20025;-72
2023/08/15 00:24:51;;;;;;;6.53;4.85;;;;;;;20.28;100.00;100892.72;5045012;28;20021;-72
2023/08/15 00:27:17;;;;;;;5.68;4.65;;;;;;;20.27;100.00;100890.25;5042823;28;20073;-71
2023/08/15 00:29:43;;;;;;;4.97;4.57;;;;;;;20.27;100.00;100895.56;5047639;28;20035;-72
2023/08/15 00:32:09;;;;;;;5.25;4.60;;;;;;;20.27;100.00;100887.63;5040873;28;20392;-71
2023/08/15 00:34:34;;;;;;;6.20;4.85;;;;;;;20.25;100.00;100889.66;5041281;28;20355;-71
2023/08/15 00:37:00;;;;;;;4.68;4.20;;;;;;;20.25;100.00;100889.66;5043414;28;20051;-73
2023/08/15 00:39:25;;;;;;;5.75;4.47;;;;;;;20.19;100.00;100896.53;5046250;28;20436;-72
2023/08/15 00:41:51;;;;;;;6.45;4.95;;;;;;;20.13;100.00;100889.38;5044537;28;20027;-72
2023/08/15 00:44:16;;;;;;;5.22;4.82;;;;;;;20.08;100.00;100895.25;5039217;28;20465;-72
2023/08/15 00:46:41;;;;;;;6.15;4.88;;;;;;;20.06;100.00;100886.69;5050326;28;20029;-72
2023/08/15 00:49:07;;;;;;;5.90;4.60;;;;;;;20.04;100.00;100882.63;5045580;28;20103;-72
2023/08/15 00:51:33;;;;;;;6.32;4.90;;;;;;;20.01;100.00;100881.19;5045721;28;20078;-72
2023/08/15 00:54:00;;;;;;;5.05;4.55;;;;;;;20.02;100.00;100890.75;5047266;28;20103;-72
2023/08/15 00:56:25;;;;;;;6.43;4.38;;;;;;;20.00;100.00;100882.19;5051332;28;20029;-71
2023/08/15 00:58:52;;;;;;;4.82;4.32;;;;;;;19.97;100.00;100887.88;5048404;28;20043;-72
2023/08/15 01:01:18;;;;;;;5.15;4.75;;;;;;;20.25;98.33;100876.41;5052510;28;20081;-71
2023/08/15 01:03:45;;;;;;;5.32;4.82;;;;;;;20.42;97.48;100873.22;5052237;28;20029;-72
2023/08/15 01:06:11;;;;;;;5.22;4.72;;;;;;;20.35;97.78;100869.72;5047463;28;20053;-71
2023/08/15 01:08:36;;;;;;;5.00;4.40;;;;;;;20.37;97.21;100857.09;5048068;28;20112;-72
2023/08/15 01:11:02;;;;;;;4.18;3.88;;;;;;;20.46;96.61;100865.72;5049594;28;20024;-72
2023/08/15 01:13:35;;;;;;;5.40;4.50;;;;;;;20.48;96.22;100859.22;5050281;28;20024;-72
2023/08/15 01:16:03;;;;;;;5.32;4.82;;;;;;;20.58;95.44;100864.13;5048610;28;20032;-73
2023/08/15 01:18:34;;;;;;;5.00;4.60;;;;;;;20.66;94.42;100848.06;5049880;28;20483;-72
2023/08/15 01:21:01;;;;;;;5.25;4.32;;;;;;;20.57;95.26;100859.84;5051834;28;20507;-72
2023/08/15 01:23:39;;;;;;;4.85;4.45;;;;;;;20.51;94.30;100852.69;5047015;28;20035;-72
2023/08/15 01:26:04;;;;;;;6.25;4.03;;;;;;;20.65;93.50;100853.56;5051661;28;20040;-72
2023/08/15 01:28:31;;;;;;;5.22;4.78;;;;;;;20.73;92.85;100851.53;5048654;28;20028;-73
2023/08/15 01:31:28;;;;;;;5.20;4.43;;;;;;;20.74;92.73;100839.13;5044500;28;20452;-72
2023/08/15 01:34:04;;;;;;;5.65;4.25;;;;;;;20.73;92.82;100840.13;5043597;28;20021;-71
2023/08/15 01:36:33;;;;;;;5.15;4.63;;;;;;;20.71;93.09;100837.69;5048976;28;20114;-72
2023/08/15 01:39:04;;;;;;;4.50;4.10;;;;;;;20.63;93.83;100842.34;5044581;28;20037;-73
2023/08/15 01:41:35;;;;;;;4.43;4.00;;;;;;;20.66;93.35;100832.16;5049631;28;20029;-72
2023/08/15 01:44:01;;;;;;;4.95;4.28;;;;;;;20.48;94.68;100835.38;5043179;28;20033;-72
2023/08/15 01:46:26;;;;;;;5.15;4.35;;;;;;;20.39;94.78;100835.75;5051797;28;20102;-72
2023/08/15 01:48:52;;;;;;;4.72;4.32;;;;;;;20.36;95.29;100834.31;5045714;28;20047;-72
2023/08/15 01:51:17;;;;;;;5.10;4.60;;;;;;;20.36;94.09;100828.19;5051028;28;20169;-72
2023/08/15 01:53:43;;;;;;;4.38;3.97;;;;;;;20.82;89.77;100828.31;5043907;28;20044;-73
2023/08/15 01:56:09;;;;;;;5.72;4.65;;;;;;;21.08;88.04;100824.84;5049486;28;20470;-73
2023/08/15 01:58:35;;;;;;;5.47;4.30;;;;;;;21.43;85.68;100823.59;5049094;28;20037;-73
2023/08/15 02:01:02;;;;;;;4.18;3.55;;;;;;;21.30;87.12;100820.16;5042594;28;20456;-73
2023/08/15 02:03:28;;;;;;;4.93;4.43;;;;;;;21.08;88.83;100823.03;5048175;28;20033;-73
2023/08/15 02:05:53;;;;;;;9.55;4.70;;;;;;;20.91;89.91;100820.97;5046388;28;20836;-72
2023/08/15 02:08:20;;;;;;;5.13;4.72;;;;;;;20.78;91.31;100821.81;5047646;28;20094;-73
2023/08/15 02:10:46;;;;;;;5.65;4.22;;;;;;;20.66;92.61;100818.94;5045323;28;20029;-73
2023/08/15 02:13:11;;;;;;;4.80;4.30;;;;;;;20.54;93.12;100820.53;5036613;28;20083;-73
2023/08/15 02:15:37;;;;;;;4.95;4.13;;;;;;;20.46;94.17;100823.38;5047369;28;20025;-72
2023/08/15 02:18:02;;;;;;;5.25;4.75;;;;;;;20.41;94.11;100815.22;5039662;28;20057;-73
2023/08/15 02:20:28;;;;;;;4.50;4.10;;;;;;;20.41;93.30;100825.78;5039736;28;20049;-72
2023/08/15 02:22:53;;;;;;;5.32;4.35;;;;;;;20.38;93.90;100821.72;5044806;28;20036;-72
2023/08/15 02:25:19;;;;;;;5.45;4.35;;;;;;;20.23;94.61;100825.53;5042087;28;20109;-72
2023/08/15 02:27:45;;;;;;;5.60;4.97;;;;;;;20.09;95.21;100811.44;5042008;28;20037;-72
2023/08/15 02:30:10;;;;;;;6.88;4.57;;;;;;;19.99;96.04;100814.44;5036003;28;20075;-73
2023/08/15 02:32:36;;;;;;;5.13;4.72;;;;;;;19.87;96.28;100816.00;5044977;28;20086;-72
2023/08/15 02:35:01;;;;;;;5.78;4.95;;;;;;;19.80;97.20;100825.78;5038644;28;20136;-72
2023/08/15 02:37:27;;;;;;;5.45;4.95;;;;;;;19.77;97.74;100826.97;5045633;28;20079;-73
2023/08/15 02:39:52;;;;;;;5.80;5.20;;;;;;;19.76;98.05;100821.88;5040389;28;20029;-72
2023/08/15 02:42:18;;;;;;;5.90;5.07;;;;;;;19.75;98.09;100821.06;5045985;28;20032;-72
2023/08/15 02:44:43;;;;;;;7.18;5.32;;;;;;;19.74;98.56;100813.34;5049978;28;20456;-72
2023/08/15 02:47:08;;;;;;;7.50;5.53;;;;;;;19.63;99.20;100811.22;5049728;28;20111;-72
2023/08/15 02:49:34;;;;;;;5.38;4.97;;;;;;;19.57;99.94;100809.38;5053372;28;20029;-72
2023/08/15 02:51:59;;;;;;;8.35;5.20;;;;;;;19.56;100.00;100805.91;5042790;28;20029;-72
2023/08/15 02:54:25;;;;;;;6.05;5.43;;;;;;;19.52;100.00;100805.47;5050786;28;20024;-72
2023/08/15 02:56:50;;;;;;;7.03;5.13;;;;;;;19.50;100.00;100802.19;5055416;28;20118;-72
2023/08/15 02:59:16;;;;;;;6.35;5.85;;;;;;;19.48;100.00;100809.50;5051235;28;20065;-72
2023/08/15 03:01:41;;;;;;;5.93;5.43;;;;;;;19.45;100.00;100804.59;5049868;28;20033;-72
2023/08/15 03:04:10;;;;;;;5.50;5.07;;;;;;;19.66;99.08;100803.72;5052146;28;20503;-72
2023/08/15 03:06:36;;;;;;;5.22;4.82;;;;;;;20.18;94.20;100800.47;5048637;28;20057;-72
2023/08/15 03:09:02;;;;;;;5.35;4.93;;;;;;;20.44;92.13;100802.41;5048922;28;20127;-72
2023/08/15 03:11:29;;;;;;;7.97;4.93;;;;;;;20.48;91.94;100800.97;5048781;28;20127;-72
2023/08/15 03:13:55;;;;;;;6.60;4.30;;;;;;;20.48;91.92;100800.97;5047479;28;20025;-73
2023/08/15 03:16:21;;;;;;;5.63;4.25;;;;;;;20.47;92.04;100796.69;5040473;28;20024;-72
2023/08/15 03:18:46;;;;;;;4.80;4.40;;;;;;;20.47;91.81;100790.59;5051348;28;20029;-73
2023/08/15 03:21:12;;;;;;;5.40;4.10;;;;;;;20.55;91.82;100790.41;5044604;28;20112;-73
2023/08/15 03:23:37;;;;;;;6.43;5.30;;;;;;;20.46;92.39;100786.31;5046475;28;20485;-73
2023/08/15 03:26:04;;;;;;;4.85;4.45;;;;;;;20.28;93.95;100794.00;5045147;28;20480;-73
2023/08/15 03:28:30;;;;;;;5.28;4.30;;;;;;;20.17;95.68;100782.16;5043142;28;20041;-73
2023/08/15 03:30:56;;;;;;;5.25;4.75;;;;;;;20.46;92.69;100788.97;5039034;28;20469;-72
2023/08/15 03:33:23;;;;;;;6.53;4.55;;;;;;;20.78;90.03;100779.44;5046849;28;20031;-72
2023/08/15 03:35:50;;;;;;;6.07;4.25;;;;;;;20.92;88.91;100772.28;5050280;28;20055;-73
2023/08/15 03:38:18;;;;;;;6.25;4.15;;;;;;;21.12;85.96;100771.25;5044600;28;20053;-71
2023/08/15 03:40:45;;;;;;;6.43;4.15;;;;;;;21.38;84.81;100780.19;5053553;28;20148;-73
2023/08/15 03:43:10;;;;;;;4.13;3.70;;;;;;;21.29;85.15;100786.72;5042664;28;20380;-72
2023/08/15 03:45:36;;;;;;;5.45;3.28;;;;;;;21.26;84.97;100777.38;5047484;28;20049;-72
2023/08/15 03:48:03;;;;;;;7.97;3.78;;;;;;;21.27;84.52;100781.63;5041594;28;20040;-73
2023/08/15 03:50:35;;;;;;;4.97;3.72;;;;;;;21.24;84.22;100782.06;5049236;28;20044;-73
2023/08/15 03:53:01;;;;;;;3.97;3.67;;;;;;;21.26;83.81;100781.88;5044123;28;20021;-72
2023/08/15 03:55:28;;;;;;;4.28;3.88;;;;;;;21.40;83.39;100781.63;5051274;28;20025;-72
2023/08/15 03:57:53;;;;;;;3.70;3.33;;;;;;;21.32;83.81;100784.47;5041933;28;20044;-72
2023/08/15 04:00:19;;;;;;;4.40;4.00;;;;;;;21.23;84.63;100783.09;5048182;28;20029;-72
2023/08/15 04:02:45;;;;;;;4.60;4.13;;;;;;;21.14;85.86;100786.94;5048112;28;20036;-72
2023/08/15 04:05:11;;;;;;;4.20;3.80;;;;;;;21.01;86.73;100789.59;5041787;28;20033;-72
2023/08/15 04:07:37;;;;;;;6.28;4.40;;;;;;;20.93;87.22;100782.69;5042190;28;20045;-72
2023/08/15 04:10:03;;;;;;;5.60;4.00;;;;;;;20.84;87.75;100784.72;5047609;28;20099;-73
2023/08/15 04:12:28;;;;;;;4.55;4.15;;;;;;;20.72;89.51;100786.34;5042739;28;20140;-72
2023/08/15 04:14:54;;;;;;;4.63;4.13;;;;;;;20.60;91.06;100785.31;5047146;28;20541;-72
2023/08/15 04:17:19;;;;;;;5.05;4.63;;;;;;;20.47;91.96;100786.13;5044514;28;20074;-72
2023/08/15 04:19:46;;;;;;;4.60;4.20;;;;;;;20.39;92.58;100785.47;5043806;28;20025;-72
2023/08/15 04:22:11;;;;;;;5.20;4.80;;;;;;;20.24;94.06;100783.00;5037588;28;20025;-74
2023/08/15 04:24:36;;;;;;;5.20;4.80;;;;;;;20.12;95.23;100790.69;5041606;28;20102;-74
2023/08/15 04:27:02;;;;;;;4.45;4.15;;;;;;;20.04;95.54;100790.06;5046804;28;20146;-73
2023/08/15 04:29:27;;;;;;;5.82;5.22;;;;;;;19.96;96.29;100788.41;5043594;28;20056;-75
2023/08/15 04:31:53;;;;;;;6.40;5.28;;;;;;;19.95;96.52;100793.88;5037327;28;20030;-75
2023/08/15 04:34:18;;;;;;;5.40;4.78;;;;;;;19.94;96.71;100787.78;5044365;28;20149;-75
2023/08/15 04:36:46;;;;;;;6.70;4.88;;;;;;;19.96;97.43;100795.50;5042085;28;20088;-75
2023/08/15 04:39:15;;;;;;;4.88;4.47;;;;;;;19.95;97.91;100791.25;5039574;28;20078;-75
2023/08/15 04:41:41;;;;;;;5.57;5.07;;;;;;;19.93;97.55;100791.44;5043487;28;20025;-75
2023/08/15 04:44:07;;;;;;;5.32;4.82;;;;;;;19.92;98.31;100783.69;5041982;28;20558;-75
2023/08/15 04:46:32;;;;;;;5.80;5.03;;;;;;;19.92;98.81;100787.16;5044455;28;20029;-75
2023/08/15 04:48:58;;;;;;;6.28;5.10;;;;;;;19.96;97.55;100783.09;5047896;28;20064;-76
2023/08/15 04:51:23;;;;;;;5.80;4.85;;;;;;;20.29;94.86;100777.13;5049740;28;20064;-75
2023/08/15 04:53:49;;;;;;;8.25;5.30;;;;;;;20.39;94.55;100774.91;5043894;28;20033;-72
2023/08/15 04:56:14;;;;;;;6.40;5.78;;;;;;;20.44;95.59;100788.34;5052108;28;20021;-72
2023/08/15 04:58:40;;;;;;;6.38;5.88;;;;;;;20.41;96.29;100784.28;5048451;28;20029;-72
2023/08/15 05:01:05;;;;;;;6.00;5.07;;;;;;;20.42;96.79;100785.91;5041280;28;20033;-71
2023/08/15 05:03:31;;;;;;;5.88;5.30;;;;;;;20.42;97.11;100785.91;5043430;28;20025;-71
2023/08/15 05:05:56;;;;;;;6.20;5.65;;;;;;;20.48;97.13;100793.03;5041108;28;20057;-72
2023/08/15 05:08:21;;;;;;;6.07;5.18;;;;;;;20.53;97.37;100792.44;5040254;28;20033;-71
2023/08/15 05:10:47;;;;;;;5.78;5.20;;;;;;;20.62;97.61;100799.19;5043328;28;20040;-71
2023/08/15 05:13:12;;;;;;;6.88;5.97;;;;;;;20.69;98.08;100797.34;5048129;28;20040;-72
2023/08/15 05:15:38;;;;;;;5.70;5.30;;;;;;;20.75;98.66;100798.38;5048508;28;20029;-71
2023/08/15 05:18:04;;;;;;;5.25;4.85;;;;;;;20.80;98.71;100799.38;5050830;28;20560;-70
2023/08/15 05:20:30;;;;;;;6.25;5.65;;;;;;;20.87;98.35;100786.13;5050795;28;20084;-70
2023/08/15 05:22:55;;;;;;;5.75;5.25;;;;;;;20.99;97.74;100789.81;5050587;28;20137;-70
2023/08/15 05:25:21;;;;;;;5.50;5.00;;;;;;;20.96;97.17;100786.75;5048679;28;20025;-70
2023/08/15 05:27:49;;;;;;;5.50;5.10;;;;;;;20.99;97.09;100786.34;5044500;28;20115;-68
2023/08/15 05:30:15;;;;;;;6.60;5.32;;;;;;;21.08;96.81;100785.13;5043357;28;20033;-68
2023/08/15 05:32:40;;;;;;;5.32;4.82;;;;;;;21.22;95.06;100784.13;5042310;28;20558;-69
2023/08/15 05:35:06;;;;;;;5.95;4.70;;;;;;;21.46;92.25;100791.38;5048577;28;20049;-68
2023/08/15 05:37:31;;;;;;;5.50;5.00;;;;;;;21.69;90.28;100798.06;5048775;28;20334;-68
2023/08/15 05:39:57;;;;;;;5.85;5.32;;;;;;;21.80;91.47;100792.91;5045446;28;20020;-68
2023/08/15 05:42:22;;;;;;;6.85;4.80;;;;;;;21.89;92.29;100793.47;5047158;28;20031;-68
2023/08/15 05:44:48;;;;;;;7.10;5.00;;;;;;;21.96;92.77;100788.16;5044761;28;20032;-68
2023/08/15 05:47:13;;;;;;;5.85;5.32;;;;;;;22.05;92.99;100790.38;5040226;28;20036;-68
2023/08/15 05:49:41;;;;;;;5.47;4.93;;;;;;;22.10;93.18;100795.88;5039891;28;20037;-68
2023/08/15 05:52:06;;;;;;;4.20;3.90;;;;;;;22.14;92.25;100791.78;5050773;28;20064;-68
2023/08/15 05:54:32;;;;;;;5.00;4.60;;;;;;;22.15;91.42;100790.75;5042137;28;20056;-68
2023/08/15 05:56:57;;;;;;;7.97;4.50;;;;;;;22.13;90.61;100794.63;5041216;28;20041;-68
2023/08/15 05:59:23;;;;;;;4.50;4.10;;;;;;;22.16;88.86;100792.38;5037217;28;20477;-69
2023/08/15 06:01:49;;;;;;;6.75;4.60;;;;;;;22.33;87.81;100790.00;5043949;28;20041;-68
2023/08/15 06:04:14;;;;;;;4.82;4.30;;;;;;;22.36;87.71;100792.25;5050534;28;20048;-68
2023/08/15 06:06:40;;;;;;;5.38;4.78;;;;;;;22.37;87.69;100793.06;5046329;28;20025;-68
2023/08/15 06:09:05;;;;;;;5.55;4.30;;;;;;;22.46;87.43;100789.13;5040402;28;20070;-69
2023/08/15 06:11:31;;;;;;;4.25;3.95;;;;;;;22.57;86.76;100791.09;5042370;28;20061;-68
2023/08/15 06:13:56;;;;;;;6.82;4.30;;;;;;;22.66;86.67;100795.13;5046932;28;20185;-69
2023/08/15 06:16:21;;;;;;;4.25;3.95;;;;;;;22.73;85.76;100800.34;5051009;28;20135;-69
2023/08/15 06:18:47;;;;;;;4.45;4.03;;;;;;;22.84;84.40;100784.56;5046185;28;20035;-69
2023/08/15 06:21:12;;;;;;;4.22;3.83;;;;;;;22.97;84.40;100793.47;5048888;28;20043;-70
2023/08/15 06:23:38;;;;;;;6.75;3.92;;;;;;;23.06;82.55;100795.63;5051590;28;20036;-69
2023/08/15 06:26:03;;;;;;;5.45;4.00;;;;;;;23.25;81.40;100791.13;5049633;28;20021;-69
2023/08/15 06:28:29;;;;;;;3.75;3.40;;;;;;;23.44;80.50;100789.31;5051342;28;20040;-69
2023/08/15 06:30:55;;;;;;;5.35;3.67;;;;;;;23.56;80.23;100797.41;5049643;28;20499;-69
2023/08/15 06:33:20;;;;;;;3.92;3.63;;;;;;;23.52;79.72;100790.88;5053185;28;20052;-69
2023/08/15 06:35:45;;;;;;;3.95;3.55;;;;;;;23.58;80.15;100790.03;5047953;28;20100;-70
2023/08/15 06:38:11;;;;;;;3.95;3.65;;;;;;;23.64;80.04;100786.44;5043970;28;20033;-69
2023/08/15 06:40:36;;;;;;;5.10;3.92;;;;;;;23.68;79.62;100784.97;5047370;28;20053;-69
2023/08/15 06:43:02;;;;;;;5.53;3.33;;;;;;;23.74;78.85;100786.75;5040742;28;20056;-69
2023/08/15 06:45:27;;;;;;;3.83;3.42;;;;;;;23.77;78.54;100787.09;5051079;28;20025;-69
2023/08/15 06:47:53;;;;;;;5.22;3.67;;;;;;;23.82;78.53;100786.44;5047450;28;20082;-69
2023/08/15 06:50:19;;;;;;;3.50;3.20;;;;;;;23.86;78.23;100789.47;5053503;28;20108;-69
2023/08/15 06:52:44;;;;;;;4.32;3.83;;;;;;;23.90;78.51;100782.66;5047809;28;20029;-68
2023/08/15 06:55:09;;;;;;;3.22;2.90;;;;;;;23.91;78.41;100781.63;5053970;28;20156;-67
2023/08/15 06:57:35;;;;;;;5.25;3.65;;;;;;;23.92;78.05;100777.94;5038724;28;20024;-69
2023/08/15 07:00:01;;;;;;;3.95;3.30;;;;;;;24.01;78.50;100782.72;5049415;28;20039;-68
2023/08/15 07:02:29;;;;;;;4.18;3.30;;;;;;;24.06;77.85;100779.38;5048068;28;20030;-69
2023/08/15 07:04:54;;;;;;;4.07;3.20;;;;;;;24.14;77.63;100792.34;5038088;28;20033;-68
2023/08/15 07:07:20;;;;;;;5.18;3.85;;;;;;;24.25;78.22;100794.28;5044340;28;20553;-68
2023/08/15 07:09:46;;;;;;;3.42;2.88;;;;;;;24.35;77.33;100785.75;5040822;28;20029;-69
2023/08/15 07:12:12;;;;;;;5.30;3.88;;;;;;;24.49;78.12;100784.53;5042872;28;20078;-69
2023/08/15 07:14:37;;;;;;;5.10;3.80;;;;;;;24.69;77.16;100789.53;5045642;28;20045;-69
2023/08/15 07:17:03;;;;;;;4.28;3.72;;;;;;;24.89;76.49;100790.03;5043788;28;20021;-69
2023/08/15 07:19:28;;;;;;;3.22;2.90;;;;;;;25.06;75.69;100790.16;5051483;28;20404;-69
2023/08/15 07:21:54;;;;;;;4.47;3.28;;;;;;;25.16;75.71;100790.38;5053181;28;20028;-70
2023/08/15 07:24:19;;;;;;;5.03;3.88;;;;;;;25.22;75.43;100789.47;5050457;28;20035;-69
2023/08/15 07:26:45;;;;;;;5.38;3.53;;;;;;;25.31;74.88;100793.41;5049069;28;20068;-68
2023/08/15 07:29:14;;;;;;;4.05;3.65;;;;;;;25.39;74.70;100785.06;5044303;28;20033;-69
2023/08/15 07:31:39;;;;;;;5.00;3.65;;;;;;;25.50;74.26;100787.94;5050829;28;20033;-69
2023/08/15 07:34:05;;;;;;;3.97;3.67;;;;;;;25.54;73.94;100791.72;5052069;28;20051;-68
2023/08/15 07:36:30;;;;;;;7.72;3.90;;;;;;;25.57;74.77;100789.41;5052231;28;20380;-69
2023/08/15 07:38:56;;;;;;;3.92;3.65;;;;;;;25.57;73.43;100789.41;5051697;28;20033;-69
2023/08/15 07:41:21;;;;;;;4.38;3.97;;;;;;;25.67;73.64;100796.84;5052011;28;20130;-69
2023/08/15 07:43:47;;;;;;;4.05;3.72;;;;;;;25.86;72.39;100789.50;5052247;28;20024;-70
2023/08/15 07:46:12;;;;;;;5.15;3.78;;;;;;;26.03;72.13;100801.81;5053048;28;20024;-70
2023/08/15 07:48:38;;;;;;;4.65;3.90;;;;;;;26.17;72.31;100797.00;5051758;28;20111;-69
2023/08/15 07:51:03;;;;;;;4.00;3.60;;;;;;;26.30;71.96;100801.25;5051390;28;20067;-69
2023/08/15 07:53:30;;;;;;;4.47;3.97;;;;;;;26.47;71.19;100794.09;5048315;28;20029;-69
2023/08/15 07:55:55;;;;;;;4.00;3.70;;;;;;;26.53;70.92;100795.78;5050813;28;20032;-69
2023/08/15 07:58:21;;;;;;;4.55;3.40;;;;;;;26.62;70.98;100793.53;5051837;28;20024;-70
2023/08/15 08:00:46;;;;;;;3.72;3.20;;;;;;;26.71;69.47;100794.75;5049265;28;20043;-70
2023/08/15 08:03:12;;;;;;;3.45;3.15;;;;;;;26.77;69.07;100788.44;5051645;28;20388;-69
2023/08/15 08:05:37;;;;;;;3.55;3.25;;;;;;;26.84;67.87;100786.44;5051549;28;20033;-66
2023/08/15 08:08:03;;;;;;;4.50;2.92;;;;;;;26.97;67.42;100779.94;5055684;28;20477;-67
2023/08/15 08:10:29;;;;;;;3.38;3.08;;;;;;;27.10;67.42;100779.59;5051722;28;20037;-66
2023/08/15 08:12:54;;;;;;;4.18;3.85;;;;;;;27.12;67.12;100788.19;5051920;28;20036;-67
2023/08/15 08:15:23;;;;;;;4.85;3.53;;;;;;;27.20;66.54;100784.28;5051335;28;20029;-69
2023/08/15 08:17:49;;;;;;;4.07;3.42;;;;;;;27.31;66.01;100786.88;5050843;28;20071;-68
2023/08/15 08:20:16;;;;;;;4.72;3.80;;;;;;;27.29;66.17;100788.97;5053532;28;20410;-68
2023/08/15 08:22:42;;;;;;;3.58;3.35;;;;;;;27.27;65.20;100796.44;5050561;28;20483;-68
2023/08/15 08:25:19;;;;;;;4.57;3.40;;;;;;;27.30;63.63;100792.47;5055234;28;20052;-68
2023/08/15 08:27:45;;;;;;;3.50;3.20;;;;;;;27.43;63.90;100790.22;5053133;28;20056;-68
2023/08/15 08:30:16;;;;;;;4.57;3.38;;;;;;;27.68;62.64;100797.78;5044550;28;20112;-68
2023/08/15 08:32:42;;;;;;;4.03;3.72;;;;;;;27.85;63.79;100792.38;5051336;28;20032;-68
2023/08/15 08:35:08;;;;;;;4.15;3.58;;;;;;;27.91;64.20;100793.22;5053694;28;20057;-68
2023/08/15 08:37:33;;;;;;;4.25;3.85;;;;;;;27.98;63.68;100799.19;5051255;28;20033;-68
2023/08/15 08:39:59;;;;;;;4.75;3.25;;;;;;;27.96;64.35;100799.44;5048370;28;20035;-68
2023/08/15 08:42:24;;;;;;;4.38;3.17;;;;;;;28.07;63.84;100795.81;5050576;28;20499;-68
2023/08/15 08:44:51;;;;;;;5.40;3.38;;;;;;;28.15;64.10;100797.22;5050185;28;20119;-69
2023/08/15 08:47:24;;;;;;;4.22;3.10;;;;;;;28.09;62.58;100796.38;5051132;28;20020;-68
2023/08/15 08:49:52;;;;;;;3.88;3.47;;;;;;;28.08;63.38;100797.44;5047754;28;20037;-68
2023/08/15 08:52:18;;;;;;;2.90;2.70;;;;;;;28.07;63.41;100786.97;5048866;28;20017;-68
2023/08/15 08:54:44;;;;;;;3.30;3.00;;;;;;;28.09;62.55;100791.00;5048690;28;20127;-68
2023/08/15 08:57:11;;;;;;;3.42;3.13;;;;;;;28.01;63.05;100786.09;5050445;28;20380;-68
2023/08/15 08:59:40;;;;;;;3.85;2.63;;;;;;;27.93;63.14;100786.56;5050337;28;20037;-68
2023/08/15 09:02:10;;;;;;;3.60;3.25;;;;;;;27.99;62.67;100788.22;5050077;28;20114;-68
2023/08/15 09:04:36;;;;;;;3.88;3.20;;;;;;;28.03;62.88;100783.97;5048199;28;20333;-70
2023/08/15 09:07:01;;;;;;;3.47;2.65;;;;;;;28.12;61.89;100783.53;5048080;28;20032;-68
2023/08/15 09:09:27;;;;;;;3.53;3.15;;;;;;;28.22;60.85;100779.13;5050500;28;20052;-68
2023/08/15 09:11:52;;;;;;;3.28;2.97;;;;;;;28.24;59.70;100777.00;5050211;28;20035;-68
2023/08/15 09:14:18;;;;;;;3.30;3.10;;;;;;;28.16;59.13;100779.28;5050790;28;20119;-68
2023/08/15 09:16:48;;;;;;;4.75;3.55;;;;;;;28.16;60.11;100776.63;5050379;28;20091;-68
2023/08/15 09:19:15;;;;;;;3.20;2.90;;;;;;;28.22;61.29;100775.63;5044437;28;20459;-69
2023/08/15 09:21:41;;;;;;;3.35;2.75;;;;;;;28.43;59.73;100772.06;5054011;28;20138;-68
2023/08/15 09:24:07;;;;;;;5.60;2.53;;;;;;;28.51;59.28;100779.63;5050170;28;20059;-68
2023/08/15 09:26:33;;;;;;;4.22;3.17;;;;;;;28.42;59.72;100771.25;5048319;28;20476;-68
2023/08/15 09:28:59;;;;;;;2.72;2.53;;;;;;;28.38;60.43;100763.97;5047019;28;20453;-69
2023/08/15 09:31:24;;;;;;;7.60;3.08;;;;;;;28.32;59.70;100767.69;5048838;28;20113;-68
2023/08/15 09:33:50;;;;;;;3.35;3.08;;;;;;;28.24;59.83;100765.47;5049395;28;20480;-68
2023/08/15 09:36:16;;;;;;;3.90;2.92;;;;;;;28.24;59.93;100762.78;5053395;28;20124;-68
2023/08/15 09:38:41;;;;;;;2.75;2.55;;;;;;;28.44;58.17;100764.81;5050226;28;20558;-68
2023/08/15 09:41:14;;;;;;;4.60;2.83;;;;;;;28.45;58.56;100763.75;5049771;28;20349;-68
2023/08/15 09:43:52;;;;;;;4.72;2.92;;;;;;;28.33;59.34;100758.59;5050314;28;20044;-68
2023/08/15 09:46:19;;;;;;;3.47;3.10;;;;;;;28.32;59.18;100754.31;5048026;28;20044;-68
2023/08/15 09:48:48;;;;;;;5.05;2.78;;;;;;;28.22;57.20;100754.19;5053521;28;20029;-68
2023/08/15 09:51:15;;;;;;;3.05;2.85;;;;;;;28.37;56.75;100751.63;5046803;28;20060;-69
2023/08/15 09:53:46;;;;;;;3.50;2.92;;;;;;;28.41;57.65;100752.75;5049531;28;20083;-69
2023/08/15 09:56:12;;;;;;;43.17;10.15;;;;;;;28.38;57.77;100750.56;5047247;28;20029;-69
2023/08/15 09:58:38;;;;;;;8.63;4.72;;;;;;;28.39;58.05;100744.97;5054763;28;20106;-69
2023/08/15 10:01:07;;;;;;;7.95;3.35;;;;;;;28.29;57.29;100744.91;5053805;28;20028;-68
2023/08/15 10:03:37;;;;;;;9.57;4.78;;;;;;;28.41;56.81;100739.34;5054297;28;20021;-68
2023/08/15 10:06:04;;;;;;;6.47;4.18;;;;;;;28.53;55.70;100734.63;5051362;28;20498;-68
2023/08/15 10:08:31;;;;;;;7.68;5.05;;;;;;;28.67;55.62;100735.81;5051966;28;20388;-68
2023/08/15 10:10:58;;;;;;;6.30;4.13;;;;;;;28.71;55.96;100733.41;5053484;28;20025;-68
2023/08/15 10:13:44;;;;;;;5.13;3.10;;;;;;;28.81;56.33;100738.84;5054198;28;20419;-68
2023/08/15 10:16:12;;;;;;;4.25;3.85;;;;;;;28.81;56.68;100735.38;5052571;28;20071;-68
2023/08/15 10:18:38;;;;;;;6.20;4.95;;;;;;;28.73;56.22;100734.78;5060926;28;20024;-67
2023/08/15 10:21:03;;;;;;;2.95;2.72;;;;;;;28.79;55.99;100732.13;5052973;28;20479;-68
2023/08/15 10:23:33;;;;;;;4.55;3.30;;;;;;;28.76;56.45;100728.09;5053782;28;20040;-67
2023/08/15 10:26:00;;;;;;;3.78;3.42;;;;;;;28.82;55.86;100731.66;5053296;28;20056;-69
2023/08/15 10:28:30;;;;;;;6.65;4.13;;;;;;;28.77;56.66;100726.22;5058656;28;20025;-69
2023/08/15 10:30:56;;;;;;;4.45;3.30;;;;;;;28.83;56.43;100734.03;5051473;28;20094;-69
2023/08/15 10:33:23;;;;;;;3.55;3.17;;;;;;;28.88;55.53;100730.59;5053433;28;20021;-69
2023/08/15 10:35:54;;;;;;;4.18;3.38;;;;;;;29.02;54.33;100729.06;5051747;28;20239;-69
2023/08/15 10:38:40;;;;;;;8.15;7.38;;;;;;;29.19;50.56;100728.91;5053560;28;20044;-68
2023/08/15 10:41:14;;;;;;;12.75;11.45;;;;;;;29.10;53.57;100727.78;5052325;28;20044;-69
2023/08/15 10:43:44;;;;;;;4.28;3.78;;;;;;;29.04;54.25;100726.94;5053302;28;20507;-69
2023/08/15 10:46:09;;;;;;;4.63;3.97;;;;;;;28.94;54.67;100726.88;5051567;28;20040;-69
2023/08/15 10:48:36;;;;;;;6.88;5.30;;;;;;;29.10;55.30;100717.84;5053154;28;20362;-69
2023/08/15 10:51:02;;;;;;;3.85;2.90;;;;;;;29.15;54.62;100723.25;5052923;28;20064;-68
2023/08/15 10:53:27;;;;;;;6.40;5.90;;;;;;;29.31;53.56;100727.59;5056648;28;20064;-69
2023/08/15 10:55:54;;;;;;;3.95;3.50;;;;;;;29.28;53.01;100722.78;5052255;28;20072;-68
2023/08/15 10:58:21;;;;;;;3.40;3.10;;;;;;;29.26;52.72;100729.47;5053001;28;20025;-69
2023/08/15 11:00:46;;;;;;;2.58;2.38;;;;;;;29.26;52.23;100721.41;5052336;28;20029;-68
2023/08/15 11:03:13;;;;;;;5.57;2.60;;;;;;;29.23;53.21;100727.31;5051503;28;20033;-69
2023/08/15 11:05:39;;;;;;;3.50;2.70;;;;;;;29.26;53.37;100726.78;5052659;28;20025;-69
2023/08/15 11:08:11;;;;;;;3.78;2.85;;;;;;;29.22;52.75;100723.81;5052706;28;20048;-68
2023/08/15 11:10:42;;;;;;;8.93;7.63;;;;;;;29.21;52.11;100730.25;5052939;28;20091;-69
2023/08/15 11:13:08;;;;;;;4.30;3.90;;;;;;;29.32;52.59;100725.72;5051128;28;20123;-68
2023/08/15 11:15:33;;;;;;;3.30;2.95;;;;;;;29.30;51.81;100723.28;5052604;28;20179;-68
2023/08/15 11:17:59;;;;;;;3.72;3.35;;;;;;;29.30;51.79;100719.81;5050200;28;20033;-69
2023/08/15 11:20:29;;;;;;;7.20;3.55;;;;;;;29.30;52.03;100717.91;5052623;28;20025;-69